createdAt,value
2018-07-05T00:01:47.989Z,75.13
2018-07-05T00:04:34.428Z,74.98
2018-07-05T00:07:20.901Z,75.39
2018-07-05T00:10:07.206Z,75.95
2018-07-05T00:12:53.520Z,76.49
2018-07-05T00:15:40.005Z,76.43
2018-07-05T00:18:26.464Z,76.75
2018-07-05T00:21:12.936Z,76.94
2018-07-05T00:23:59.257Z,77.61
2018-07-05T00:26:45.460Z,77.84
2018-07-05T00:29:31.965Z,77.32
2018-07-05T00:32:18.343Z,76.59
2018-07-05T00:35:04.620Z,76.59
2018-07-05T00:37:51.105Z,77.62
2018-07-05T00:40:37.400Z,77.55
2018-07-05T00:43:23.712Z,77.99
2018-07-05T00:46:10.215Z,77.56
2018-07-05T00:48:56.496Z,77.89
2018-07-05T00:51:36.839Z,78.66
2018-07-05T00:54:23.123Z,78.31
2018-07-05T00:57:03.487Z,77.47
2018-07-05T00:59:43.834Z,77.69
2018-07-05T01:02:30.080Z,78.04
2018-07-05T01:05:16.539Z,79.00
2018-07-05T01:08:02.997Z,79.49
2018-07-05T01:10:49.487Z,79.99
2018-07-05T01:13:35.771Z,78.44
2018-07-05T01:16:22.073Z,75.03
2018-07-05T01:19:08.407Z,75.61
2018-07-05T01:21:54.737Z,75.88
2018-07-05T01:24:41.170Z,82.91
2018-07-05T01:27:27.420Z,75.85
2018-07-05T01:30:13.705Z,76.29
2018-07-05T01:33:00.176Z,76.18
2018-07-05T01:35:46.611Z,76.32
2018-07-05T01:38:32.942Z,77.44
2018-07-05T01:41:13.328Z,78.28
2018-07-05T01:43:59.727Z,78.23
2018-07-05T01:46:46.037Z,78.79
2018-07-05T01:49:32.348Z,78.65
2018-07-05T01:52:18.712Z,78.59
2018-07-05T01:55:05.089Z,79.23
2018-07-05T01:57:51.443Z,79.16
2018-07-05T02:00:38.113Z,78.27
2018-07-05T02:03:18.728Z,79.83
2018-07-05T02:06:05.095Z,79.08
2018-07-05T02:08:51.496Z,77.63
2018-07-05T02:11:37.782Z,77.12
2018-07-05T02:14:24.142Z,76.73
2018-07-05T02:17:10.388Z,76.92
2018-07-05T02:19:56.708Z,76.87
2018-07-05T02:22:43.096Z,76.46
2018-07-05T02:25:29.461Z,76.93
2018-07-05T02:28:15.812Z,77.13
2018-07-05T02:31:02.160Z,76.51
2018-07-05T02:33:42.540Z,77.62
2018-07-05T02:36:33.035Z,77.54
2018-07-05T02:39:24.748Z,77.97
2018-07-05T02:42:11.265Z,78.75
2018-07-05T02:44:57.679Z,79.73
2018-07-05T02:47:43.951Z,79.70
2018-07-05T02:50:24.215Z,79.39
2018-07-05T02:53:10.653Z,78.38
2018-07-05T02:55:56.973Z,78.68
2018-07-05T02:58:43.548Z,79.08
2018-07-05T03:01:29.857Z,79.28
2018-07-05T03:04:16.315Z,80.42
2018-07-05T03:07:02.552Z,80.20
2018-07-05T03:09:48.994Z,78.85
2018-07-05T03:12:35.373Z,79.04
2018-07-05T03:15:21.683Z,79.55
2018-07-05T03:18:08.071Z,79.76
2018-07-05T03:20:54.297Z,78.52
2018-07-05T03:23:40.829Z,78.61
2018-07-05T03:26:27.070Z,77.28
2018-07-05T03:29:13.381Z,77.60
2018-07-05T03:31:59.785Z,77.78
2018-07-05T03:34:46.140Z,78.51
2018-07-05T03:37:32.532Z,78.52
2018-07-05T03:40:19.011Z,78.81
2018-07-05T03:43:05.432Z,78.75
2018-07-05T03:45:51.920Z,79.63
2018-07-05T03:48:38.340Z,80.85
2018-07-05T03:51:24.536Z,80.88
2018-07-05T03:54:10.916Z,80.13
2018-07-05T03:56:57.244Z,80.48
2018-07-05T03:59:43.623Z,81.48
2018-07-05T04:02:29.988Z,81.24
2018-07-05T04:05:16.318Z,81.03
2018-07-05T04:08:02.681Z,80.83
2018-07-05T04:10:48.963Z,81.12
2018-07-05T04:13:35.412Z,81.37
2018-07-05T04:16:15.871Z,82.84
2018-07-05T04:19:02.396Z,82.34
2018-07-05T04:21:48.848Z,82.87
2018-07-05T04:24:35.242Z,82.60
2018-07-05T04:27:21.533Z,82.44
2018-07-05T04:30:07.915Z,81.73
2018-07-05T04:32:54.408Z,80.56
2018-07-05T04:35:40.764Z,80.49
2018-07-05T04:38:21.145Z,79.72
2018-07-05T04:41:07.589Z,80.16
2018-07-05T04:43:53.736Z,80.02
2018-07-05T04:46:40.135Z,78.94
2018-07-05T04:49:26.591Z,78.98
2018-07-05T04:52:12.747Z,79.60
2018-07-05T04:54:59.154Z,79.67
2018-07-05T04:57:45.668Z,79.76
2018-07-05T05:00:31.942Z,79.99
2018-07-05T05:03:18.226Z,79.82
2018-07-05T05:05:58.486Z,80.19
2018-07-05T05:08:44.785Z,80.32
2018-07-05T05:11:31.026Z,80.26
2018-07-05T05:14:17.390Z,80.36
2018-07-05T05:17:03.836Z,80.12
2018-07-05T05:19:50.353Z,81.17
2018-07-05T05:22:36.719Z,80.63
2018-07-05T05:25:23.133Z,80.45
2018-07-05T05:28:09.575Z,80.20
2018-07-05T05:30:49.884Z,79.54
2018-07-05T05:33:36.284Z,80.30
2018-07-05T05:36:22.559Z,79.25
2018-07-05T05:39:08.899Z,79.70
2018-07-05T05:41:55.273Z,78.50
2018-07-05T05:44:41.675Z,77.46
2018-07-05T05:47:27.978Z,77.32
2018-07-05T05:50:14.425Z,77.40
2018-07-05T05:53:00.970Z,75.77
2018-07-05T05:55:47.491Z,74.91
2018-07-05T05:58:33.893Z,75.09
2018-07-05T06:01:20.179Z,74.81
2018-07-05T06:04:06.612Z,74.75
2018-07-05T06:06:52.968Z,74.27
2018-07-05T06:09:39.401Z,74.48
2018-07-05T06:12:26.547Z,73.34
2018-07-05T06:15:12.939Z,72.57
2018-07-05T06:17:59.218Z,71.47
2018-07-05T06:20:45.492Z,71.70
2018-07-05T06:23:32.168Z,72.12
2018-07-05T06:26:18.533Z,72.15
2018-07-05T06:29:04.874Z,71.94
2018-07-05T06:31:51.149Z,70.64
2018-07-05T06:34:37.669Z,70.51
2018-07-05T06:37:17.956Z,70.80
2018-07-05T06:40:04.509Z,69.71
2018-07-05T06:42:50.876Z,68.57
2018-07-05T06:45:37.440Z,68.08
2018-07-05T06:48:17.845Z,67.68
2018-07-05T06:51:04.246Z,68.54
2018-07-05T06:53:50.749Z,68.40
2018-07-05T06:56:37.161Z,68.15
2018-07-05T06:59:23.463Z,67.63
2018-07-05T07:02:09.964Z,67.97
2018-07-05T07:04:56.341Z,68.59
2018-07-05T07:07:42.641Z,68.48
2018-07-05T07:10:29.141Z,68.26
2018-07-05T07:13:15.459Z,67.83
2018-07-05T07:16:01.861Z,67.90
2018-07-05T07:18:42.139Z,67.55
2018-07-05T07:21:28.497Z,67.53
2018-07-05T07:24:14.927Z,67.70
2018-07-05T07:27:01.488Z,67.65
2018-07-05T07:29:48.001Z,67.12
2018-07-05T07:32:34.406Z,66.92
2018-07-05T07:35:20.707Z,67.33
2018-07-05T07:38:07.100Z,66.54
2018-07-05T07:40:53.494Z,66.20
2018-07-05T07:43:21.272Z,65.62
2018-07-05T07:45:49.129Z,63.81
2018-07-05T07:48:16.872Z,62.11
2018-07-05T07:50:44.664Z,62.52
2018-07-05T07:53:12.545Z,61.29
2018-07-05T07:55:40.333Z,60.98
2018-07-05T07:58:08.210Z,62.01
2018-07-05T08:00:35.948Z,61.57
2018-07-05T08:03:03.736Z,62.22
2018-07-05T08:05:31.515Z,61.62
2018-07-05T08:07:59.356Z,60.98
2018-07-05T08:10:27.105Z,60.20
2018-07-05T08:12:54.882Z,60.38
2018-07-05T08:15:22.668Z,60.89
2018-07-05T08:17:50.708Z,61.29
2018-07-05T08:20:18.812Z,61.73
2018-07-05T08:22:46.605Z,62.28
2018-07-05T08:25:14.390Z,62.43
2018-07-05T08:27:42.200Z,63.30
2018-07-05T08:30:10.036Z,62.32
2018-07-05T08:32:37.833Z,62.26
2018-07-05T08:35:05.616Z,62.42
2018-07-05T08:37:33.421Z,63.12
2018-07-05T08:40:01.211Z,62.75
2018-07-05T08:42:28.999Z,63.62
2018-07-05T08:44:57.061Z,63.95
2018-07-05T08:47:25.135Z,62.53
2018-07-05T08:49:52.916Z,61.96
2018-07-05T08:52:20.781Z,59.50
2018-07-05T08:54:48.740Z,59.70
2018-07-05T08:57:16.587Z,60.42
2018-07-05T08:59:44.369Z,61.77
2018-07-05T09:02:12.177Z,62.29
2018-07-05T09:04:39.963Z,62.10
2018-07-05T09:07:07.739Z,60.35
2018-07-05T09:09:35.528Z,59.45
2018-07-05T09:12:03.308Z,59.95
2018-07-05T09:14:31.100Z,58.18
2018-07-05T09:16:58.916Z,57.93
2018-07-05T09:19:26.699Z,58.75
2018-07-05T09:21:54.485Z,59.13
2018-07-05T09:24:22.332Z,58.16
2018-07-05T09:26:50.240Z,57.78
2018-07-05T09:29:17.905Z,58.72
2018-07-05T09:31:45.697Z,57.36
2018-07-05T09:34:13.748Z,58.43
2018-07-05T09:36:41.526Z,60.29
2018-07-05T09:39:09.312Z,59.90
2018-07-05T09:41:37.377Z,57.33
2018-07-05T09:44:05.168Z,56.31
2018-07-05T09:46:32.952Z,56.82
2018-07-05T09:49:00.736Z,56.89
2018-07-05T09:51:28.521Z,56.27
2018-07-05T09:53:56.558Z,57.84
2018-07-05T09:56:24.349Z,57.74
2018-07-05T09:58:52.517Z,58.47
2018-07-05T10:01:20.301Z,58.81
2018-07-05T10:03:48.381Z,59.69
2018-07-05T10:06:16.136Z,60.05
2018-07-05T10:08:44.185Z,59.31
2018-07-05T10:11:11.973Z,59.22
2018-07-05T10:13:40.040Z,58.70
2018-07-05T10:16:07.832Z,58.70
2018-07-05T10:18:35.617Z,58.48
2018-07-05T10:21:03.405Z,58.76
2018-07-05T10:23:31.203Z,58.87
2018-07-05T10:25:58.992Z,58.11
2018-07-05T10:28:26.774Z,57.73
2018-07-05T10:31:13.108Z,57.50
2018-07-05T10:33:45.493Z,57.44
2018-07-05T10:36:13.275Z,57.02
2018-07-05T10:38:41.084Z,57.80
2018-07-05T10:41:27.624Z,56.60
2018-07-05T10:44:08.011Z,55.49
2018-07-05T10:46:54.544Z,55.08
2018-07-05T10:49:40.925Z,55.35
2018-07-05T10:52:27.103Z,54.92
2018-07-05T10:55:13.478Z,53.93
2018-07-05T10:57:59.989Z,53.22
2018-07-05T11:00:46.341Z,53.11
2018-07-05T11:03:32.753Z,52.82
2018-07-05T11:06:19.127Z,52.04
2018-07-05T11:09:06.507Z,51.59
2018-07-05T11:11:47.212Z,51.63
2018-07-05T11:14:33.734Z,51.61
2018-07-05T11:17:20.064Z,51.71
2018-07-05T11:20:06.325Z,51.98
2018-07-05T11:22:52.561Z,52.77
2018-07-05T11:25:39.009Z,54.05
2018-07-05T11:28:25.899Z,54.82
2018-07-05T11:31:12.271Z,55.47
2018-07-05T11:33:58.519Z,54.99
2018-07-05T11:36:44.905Z,55.70
2018-07-05T11:39:31.292Z,56.01
2018-07-05T11:42:11.747Z,55.81
2018-07-05T11:44:58.068Z,54.51
2018-07-05T11:47:44.436Z,54.01
2018-07-05T11:50:30.681Z,55.13
2018-07-05T11:53:16.988Z,54.92
2018-07-05T11:56:03.334Z,55.89
2018-07-05T11:58:49.596Z,55.95
2018-07-05T12:01:35.865Z,55.68
2018-07-05T12:04:22.273Z,55.41
2018-07-05T12:07:08.753Z,56.09
2018-07-05T12:09:55.015Z,56.73
2018-07-05T12:12:41.396Z,58.41
2018-07-05T12:15:27.763Z,59.28
2018-07-05T12:18:14.254Z,60.20
2018-07-05T12:20:54.619Z,61.21
2018-07-05T12:23:41.157Z,62.20
2018-07-05T12:26:27.469Z,61.60
2018-07-05T12:29:14.166Z,65.59
2018-07-05T12:31:54.337Z,65.52
2018-07-05T12:34:40.664Z,66.64
2018-07-05T12:37:27.067Z,66.72
2018-07-05T12:40:07.399Z,66.16
2018-07-05T12:42:53.809Z,66.43
2018-07-05T12:45:40.233Z,66.22
2018-07-05T12:48:26.508Z,69.44
2018-07-05T12:51:12.959Z,72.19
2018-07-05T12:53:59.309Z,74.70
2018-07-05T12:56:45.646Z,75.18
2018-07-05T12:59:32.008Z,75.15
2018-07-05T13:02:18.357Z,75.26
2018-07-05T13:05:04.686Z,74.66
2018-07-05T13:07:51.028Z,72.31
2018-07-05T13:10:37.453Z,73.65
2018-07-05T13:13:23.737Z,74.87
2018-07-05T13:16:10.001Z,76.44
2018-07-05T13:18:56.613Z,75.19
2018-07-05T13:21:37.327Z,73.48
2018-07-05T13:24:23.913Z,75.24
2018-07-05T13:27:10.314Z,74.90
2018-07-05T13:29:56.672Z,73.88
2018-07-05T13:32:43.148Z,74.54
2018-07-05T13:35:29.475Z,75.01
2018-07-05T13:38:15.854Z,76.56
2018-07-05T13:41:02.281Z,75.43
2018-07-05T13:43:48.553Z,74.16
2018-07-05T13:46:34.795Z,73.54
2018-07-05T13:49:15.165Z,74.37
2018-07-05T13:52:01.699Z,74.59
2018-07-05T13:54:48.247Z,75.33
2018-07-05T13:57:34.703Z,73.67
2018-07-05T14:00:21.212Z,72.41
2018-07-05T14:03:07.728Z,72.55
2018-07-05T14:05:54.132Z,70.32
2018-07-05T14:08:40.512Z,70.61
2018-07-05T14:11:26.880Z,69.56
2018-07-05T14:14:13.121Z,69.34
2018-07-05T14:16:59.600Z,68.85
2018-07-05T14:19:45.896Z,68.03
2018-07-05T14:22:32.225Z,66.16
2018-07-05T14:25:18.707Z,66.06
2018-07-05T14:28:05.136Z,66.85
2018-07-05T14:30:51.437Z,66.52
2018-07-05T14:33:38.083Z,65.27
2018-07-05T14:36:19.677Z,67.96
2018-07-05T14:39:06.496Z,66.48
2018-07-05T14:41:52.951Z,65.62
2018-07-05T14:44:39.252Z,66.33
2018-07-05T14:47:25.837Z,65.57
2018-07-05T14:50:12.304Z,66.37
2018-07-05T14:52:58.645Z,66.63
2018-07-05T14:55:44.998Z,66.91
2018-07-05T14:58:31.366Z,67.85
2018-07-05T15:01:17.762Z,68.12
2018-07-05T15:04:04.346Z,67.83
2018-07-05T15:06:50.605Z,68.53
2018-07-05T15:09:37.022Z,68.25
2018-07-05T15:12:23.560Z,67.15
2018-07-05T15:15:09.837Z,68.39
2018-07-05T15:17:56.327Z,68.19
2018-07-05T15:20:42.768Z,69.12
2018-07-05T15:23:29.159Z,69.21
2018-07-05T15:26:15.449Z,69.57
2018-07-05T15:29:01.816Z,67.86
2018-07-05T15:31:48.107Z,68.46
2018-07-05T15:34:34.564Z,68.75
2018-07-05T15:37:21.029Z,69.28
2018-07-05T15:40:07.420Z,68.21
2018-07-05T15:42:53.806Z,68.54
2018-07-05T15:45:40.314Z,67.54
2018-07-05T15:48:26.749Z,66.36
2018-07-05T15:51:13.096Z,66.33
2018-07-05T15:53:59.614Z,66.18
2018-07-05T15:56:46.086Z,65.77
2018-07-05T15:59:32.468Z,66.61
2018-07-05T16:02:18.726Z,67.04
2018-07-05T16:05:05.145Z,66.92
2018-07-05T16:07:51.536Z,66.09
2018-07-05T16:10:38.780Z,65.34
2018-07-05T16:13:25.281Z,66.65
2018-07-05T16:16:11.561Z,67.61
2018-07-05T16:18:57.849Z,67.32
2018-07-05T16:21:44.397Z,68.04
2018-07-05T16:24:31.058Z,67.95
2018-07-05T16:27:11.483Z,66.98
2018-07-05T16:29:52.002Z,67.04
2018-07-05T16:35:28.820Z,67.55
2018-07-05T16:38:15.230Z,67.86
2018-07-05T16:41:01.755Z,68.47
2018-07-05T16:43:48.295Z,69.07
2018-07-05T16:46:34.821Z,69.38
2018-07-05T16:50:22.688Z,68.81
2018-07-05T16:53:09.071Z,69.30
2018-07-05T16:55:55.504Z,69.17
2018-07-05T16:58:41.999Z,70.39
2018-07-05T17:01:28.233Z,70.64
2018-07-05T17:04:15.157Z,70.28
2018-07-05T17:07:01.598Z,69.86
2018-07-05T17:09:48.031Z,70.54
2018-07-05T17:12:34.278Z,70.17
2018-07-05T17:15:20.699Z,71.20
2018-07-05T17:18:07.077Z,71.32
2018-07-05T17:20:53.360Z,71.18
2018-07-05T17:23:39.713Z,71.59
2018-07-05T17:26:19.996Z,72.13
2018-07-05T17:29:06.716Z,71.88
2018-07-05T17:31:53.140Z,71.97
2018-07-05T17:34:39.423Z,72.37
2018-07-05T17:37:25.632Z,72.35
2018-07-05T17:40:12.014Z,72.68
2018-07-05T17:42:58.339Z,72.87
2018-07-05T17:45:44.597Z,72.89
2018-07-05T17:48:31.003Z,72.91
2018-07-05T17:51:17.464Z,73.60
2018-07-05T17:54:03.909Z,72.83
2018-07-05T17:56:50.308Z,73.46
2018-07-05T17:59:36.572Z,73.39
2018-07-05T18:02:16.845Z,73.80
2018-07-05T18:05:03.272Z,74.04
2018-07-05T18:07:49.449Z,74.88
2018-07-05T18:10:35.790Z,75.35
2018-07-05T18:13:22.407Z,75.63
2018-07-05T18:16:08.772Z,0.00
2018-07-05T18:18:55.115Z,78.42
2018-07-05T18:21:41.901Z,79.31
2018-07-05T18:24:28.429Z,80.16
2018-07-05T18:27:14.740Z,81.47
2018-07-05T18:30:01.038Z,80.90
2018-07-05T18:32:47.489Z,82.32
2018-07-05T18:35:33.735Z,81.90
2018-07-05T18:38:14.125Z,82.45
2018-07-05T18:41:00.521Z,83.61
2018-07-05T18:43:46.866Z,84.05
2018-07-05T18:46:33.138Z,83.21
2018-07-05T18:49:19.562Z,83.17
2018-07-05T18:52:05.763Z,83.72
2018-07-05T18:54:52.209Z,84.40
2018-07-05T18:57:38.409Z,84.96
2018-07-05T19:00:19.979Z,85.27
2018-07-05T19:03:06.338Z,85.30
2018-07-05T19:05:52.693Z,85.89
2018-07-05T19:08:39.173Z,85.76
2018-07-05T19:11:25.429Z,85.68
2018-07-05T19:14:11.637Z,86.07
2018-07-05T19:16:57.798Z,86.43
2018-07-05T19:19:44.222Z,86.46
2018-07-05T19:22:30.404Z,85.79
2018-07-05T19:25:16.776Z,85.99
2018-07-05T19:28:03.049Z,85.94
2018-07-05T19:30:49.504Z,85.90
2018-07-05T19:33:35.880Z,85.74
2018-07-05T19:36:22.135Z,86.52
2018-07-05T19:39:08.445Z,86.01
2018-07-05T19:41:54.842Z,85.41
2018-07-05T19:44:40.998Z,85.07
2018-07-05T19:47:27.220Z,85.87
2018-07-05T19:50:13.638Z,86.74
2018-07-05T19:52:59.888Z,86.56
2018-07-05T19:55:46.233Z,87.53
2018-07-05T19:58:32.433Z,87.70
2018-07-05T20:01:18.793Z,87.84
2018-07-05T20:04:05.296Z,88.03
2018-07-05T20:06:51.511Z,88.00
2018-07-05T20:09:37.605Z,88.25
2018-07-05T20:12:23.824Z,88.34
2018-07-05T20:15:10.249Z,87.75
2018-07-05T20:17:50.599Z,87.84
2018-07-05T20:20:36.941Z,88.21
2018-07-05T20:23:23.316Z,88.64
2018-07-05T20:26:09.479Z,88.59
2018-07-05T20:28:49.794Z,88.42
2018-07-05T20:31:36.177Z,88.49
2018-07-05T20:34:22.713Z,88.10
2018-07-05T20:37:09.086Z,87.84
2018-07-05T20:39:55.363Z,88.82
2018-07-05T20:42:41.788Z,88.37
2018-07-05T20:45:28.183Z,88.74
2018-07-05T20:48:14.494Z,88.88
2018-07-05T20:51:00.910Z,89.32
2018-07-05T20:53:47.317Z,88.69
2018-07-05T20:56:33.541Z,89.42
2018-07-05T20:59:13.852Z,89.56
2018-07-05T21:02:00.184Z,89.70
2018-07-05T21:04:46.760Z,89.56
2018-07-05T21:07:33.131Z,89.16
2018-07-05T21:10:19.351Z,89.05
2018-07-05T21:13:05.692Z,89.50
2018-07-05T21:15:52.105Z,89.32
2018-07-05T21:18:38.568Z,89.30
2018-07-05T21:21:24.773Z,88.69
2018-07-05T21:24:10.996Z,89.11
2018-07-05T21:26:51.393Z,88.32
2018-07-05T21:29:37.812Z,88.23
2018-07-05T21:32:24.166Z,87.92
2018-07-05T21:35:10.573Z,88.18
2018-07-05T21:37:57.005Z,88.06
2018-07-05T21:40:43.398Z,89.19
2018-07-05T21:43:29.606Z,88.60
2018-07-05T21:46:16.079Z,88.69
2018-07-05T21:49:02.495Z,88.47
2018-07-05T21:51:48.804Z,88.24
2018-07-05T21:54:35.182Z,88.68
2018-07-05T21:57:21.578Z,88.95
2018-07-05T22:00:07.826Z,88.30
2018-07-05T22:02:54.152Z,87.71
2018-07-05T22:05:34.528Z,87.21
2018-07-05T22:08:21.055Z,88.69
2018-07-05T22:11:07.301Z,87.96
2018-07-05T22:13:53.689Z,89.07
2018-07-05T22:16:45.325Z,89.17
2018-07-05T22:19:37.074Z,88.64
2018-07-05T22:22:28.771Z,88.83
2018-07-05T22:25:20.548Z,88.82
2018-07-05T22:28:12.385Z,89.15
2018-07-05T22:31:04.148Z,89.55
2018-07-05T22:33:50.744Z,89.32
2018-07-05T22:36:37.111Z,89.46
2018-07-05T22:39:23.487Z,89.81
2018-07-05T22:42:09.907Z,89.05
2018-07-05T22:44:56.100Z,89.13
2018-07-05T22:47:42.323Z,88.87
2018-07-05T22:50:28.708Z,89.04
2018-07-05T22:53:15.150Z,89.42
2018-07-05T22:56:01.571Z,88.97
2018-07-05T22:58:41.948Z,89.22
2018-07-05T23:01:28.293Z,89.39
2018-07-05T23:04:14.616Z,89.25
2018-07-05T23:07:00.882Z,89.54
2018-07-05T23:09:47.222Z,89.18
2018-07-05T23:12:27.665Z,90.08
2018-07-05T23:15:14.029Z,90.32
2018-07-05T23:18:00.507Z,90.12
2018-07-05T23:20:46.741Z,89.80
2018-07-05T23:23:33.037Z,89.35
2018-07-05T23:26:19.369Z,89.91
2018-07-05T23:29:05.846Z,89.47
2018-07-05T23:31:52.118Z,90.01
2018-07-05T23:34:38.461Z,89.53
2018-07-05T23:37:24.816Z,89.76
2018-07-05T23:40:11.254Z,90.50
2018-07-05T23:42:57.516Z,90.73
2018-07-05T23:45:43.873Z,90.94
2018-07-05T23:48:24.333Z,90.40
2018-07-05T23:51:04.747Z,91.19
2018-07-05T23:53:51.293Z,91.10
2018-07-05T23:56:31.561Z,92.16
2018-07-05T23:59:17.956Z,90.44
